sensor_id;sensor_type;location;lat;lon;timestamp;P1;durP1;ratioP1;P2;durP2;ratioP2
26620;SDS011;14253;44.840;10.444;2023-02-28T00:00:32;12.18;;;7.32;;
26620;SDS011;14253;44.840;10.444;2023-02-28T00:02:59;13.90;;;7.47;;
26620;SDS011;14253;44.840;10.444;2023-02-28T00:05:26;17.80;;;7.50;;
26620;SDS011;14253;44.840;10.444;2023-02-28T00:07:52;17.48;;;6.85;;
26620;SDS011;14253;44.840;10.444;2023-02-28T00:10:19;14.88;;;6.90;;
26620;SDS011;14253;44.840;10.444;2023-02-28T00:12:48;12.05;;;6.25;;
26620;SDS011;14253;44.840;10.444;2023-02-28T00:15:15;14.18;;;7.47;;
26620;SDS011;14253;44.840;10.444;2023-02-28T00:17:42;14.90;;;7.22;;
26620;SDS011;14253;44.840;10.444;2023-02-28T00:20:09;13.32;;;6.80;;
26620;SDS011;14253;44.840;10.444;2023-02-28T00:22:40;12.77;;;7.03;;
26620;SDS011;14253;44.840;10.444;2023-02-28T00:25:08;14.98;;;7.05;;
26620;SDS011;14253;44.840;10.444;2023-02-28T00:27:35;17.13;;;7.60;;
26620;SDS011;14253;44.840;10.444;2023-02-28T00:30:03;14.13;;;6.93;;
26620;SDS011;14253;44.840;10.444;2023-02-28T00:32:31;14.95;;;7.53;;
26620;SDS011;14253;44.840;10.444;2023-02-28T00:34:57;15.75;;;8.50;;
26620;SDS011;14253;44.840;10.444;2023-02-28T00:37:23;12.82;;;6.50;;
26620;SDS011;14253;44.840;10.444;2023-02-28T00:39:49;14.38;;;6.97;;
26620;SDS011;14253;44.840;10.444;2023-02-28T00:42:15;21.45;;;7.55;;
26620;SDS011;14253;44.840;10.444;2023-02-28T00:44:41;13.55;;;7.45;;
26620;SDS011;14253;44.840;10.444;2023-02-28T00:47:07;13.90;;;7.30;;
26620;SDS011;14253;44.840;10.444;2023-02-28T00:49:33;16.55;;;7.60;;
26620;SDS011;14253;44.840;10.444;2023-02-28T00:51:59;15.82;;;7.45;;
26620;SDS011;14253;44.840;10.444;2023-02-28T00:54:25;15.18;;;7.43;;
26620;SDS011;14253;44.840;10.444;2023-02-28T00:56:51;14.73;;;7.43;;
26620;SDS011;14253;44.840;10.444;2023-02-28T00:59:17;20.30;;;9.25;;
26620;SDS011;14253;44.840;10.444;2023-02-28T01:01:44;16.65;;;8.18;;
26620;SDS011;14253;44.840;10.444;2023-02-28T01:04:12;13.82;;;6.88;;
26620;SDS011;14253;44.840;10.444;2023-02-28T01:06:38;16.40;;;8.35;;
26620;SDS011;14253;44.840;10.444;2023-02-28T01:09:05;14.00;;;7.57;;
26620;SDS011;14253;44.840;10.444;2023-02-28T01:11:32;18.90;;;7.70;;
26620;SDS011;14253;44.840;10.444;2023-02-28T01:13:58;11.55;;;7.07;;
26620;SDS011;14253;44.840;10.444;2023-02-28T01:16:24;20.15;;;8.10;;
26620;SDS011;14253;44.840;10.444;2023-02-28T01:18:50;20.33;;;7.47;;
26620;SDS011;14253;44.840;10.444;2023-02-28T01:21:17;18.30;;;8.02;;
26620;SDS011;14253;44.840;10.444;2023-02-28T01:23:45;14.80;;;7.28;;
26620;SDS011;14253;44.840;10.444;2023-02-28T01:26:13;13.85;;;7.30;;
26620;SDS011;14253;44.840;10.444;2023-02-28T01:28:41;22.65;;;8.48;;
26620;SDS011;14253;44.840;10.444;2023-02-28T01:31:07;15.63;;;7.63;;
26620;SDS011;14253;44.840;10.444;2023-02-28T01:33:36;15.32;;;7.90;;
26620;SDS011;14253;44.840;10.444;2023-02-28T01:36:07;12.77;;;7.32;;
26620;SDS011;14253;44.840;10.444;2023-02-28T01:38:41;13.32;;;7.45;;
26620;SDS011;14253;44.840;10.444;2023-02-28T01:41:07;12.57;;;8.10;;
26620;SDS011;14253;44.840;10.444;2023-02-28T01:46:11;13.15;;;7.22;;
26620;SDS011;14253;44.840;10.444;2023-02-28T01:48:38;14.50;;;7.88;;
26620;SDS011;14253;44.840;10.444;2023-02-28T01:51:13;11.88;;;6.93;;
26620;SDS011;14253;44.840;10.444;2023-02-28T01:53:44;15.32;;;7.60;;
26620;SDS011;14253;44.840;10.444;2023-02-28T01:56:16;15.68;;;7.80;;
26620;SDS011;14253;44.840;10.444;2023-02-28T01:58:48;11.88;;;7.32;;
26620;SDS011;14253;44.840;10.444;2023-02-28T02:01:18;10.35;;;6.80;;
26620;SDS011;14253;44.840;10.444;2023-02-28T02:03:50;10.57;;;6.80;;
26620;SDS011;14253;44.840;10.444;2023-02-28T02:06:34;17.30;;;7.82;;
26620;SDS011;14253;44.840;10.444;2023-02-28T02:09:09;13.48;;;7.00;;
26620;SDS011;14253;44.840;10.444;2023-02-28T02:11:36;12.60;;;7.00;;
26620;SDS011;14253;44.840;10.444;2023-02-28T02:25:32;13.88;;;6.47;;
26620;SDS011;14253;44.840;10.444;2023-02-28T02:31:15;11.23;;;6.68;;
26620;SDS011;14253;44.840;10.444;2023-02-28T02:36:33;10.75;;;6.97;;
26620;SDS011;14253;44.840;10.444;2023-02-28T02:39:31;10.63;;;6.53;;
26620;SDS011;14253;44.840;10.444;2023-02-28T02:42:14;11.38;;;7.10;;
26620;SDS011;14253;44.840;10.444;2023-02-28T02:44:48;11.80;;;7.20;;
26620;SDS011;14253;44.840;10.444;2023-02-28T02:47:19;14.60;;;7.30;;
26620;SDS011;14253;44.840;10.444;2023-02-28T02:49:51;13.35;;;6.97;;
26620;SDS011;14253;44.840;10.444;2023-02-28T02:52:21;15.40;;;7.28;;
26620;SDS011;14253;44.840;10.444;2023-02-28T02:54:54;12.57;;;6.97;;
26620;SDS011;14253;44.840;10.444;2023-02-28T02:57:27;11.70;;;7.13;;
26620;SDS011;14253;44.840;10.444;2023-02-28T03:00:12;10.35;;;6.50;;
26620;SDS011;14253;44.840;10.444;2023-02-28T03:02:41;12.40;;;7.13;;
26620;SDS011;14253;44.840;10.444;2023-02-28T03:05:20;11.43;;;6.85;;
26620;SDS011;14253;44.840;10.444;2023-02-28T03:07:50;9.73;;;6.77;;
26620;SDS011;14253;44.840;10.444;2023-02-28T03:13:00;10.82;;;7.05;;
26620;SDS011;14253;44.840;10.444;2023-02-28T03:18:49;9.32;;;5.75;;
26620;SDS011;14253;44.840;10.444;2023-02-28T03:21:36;9.57;;;6.45;;
26620;SDS011;14253;44.840;10.444;2023-02-28T03:24:10;10.88;;;6.38;;
26620;SDS011;14253;44.840;10.444;2023-02-28T03:26:52;11.43;;;6.38;;
26620;SDS011;14253;44.840;10.444;2023-02-28T03:32:05;10.43;;;6.28;;
26620;SDS011;14253;44.840;10.444;2023-02-28T03:34:42;12.77;;;6.85;;
26620;SDS011;14253;44.840;10.444;2023-02-28T03:37:15;9.77;;;6.82;;
26620;SDS011;14253;44.840;10.444;2023-02-28T03:39:59;12.07;;;7.82;;
26620;SDS011;14253;44.840;10.444;2023-02-28T03:42:38;11.30;;;6.50;;
26620;SDS011;14253;44.840;10.444;2023-02-28T03:45:12;9.80;;;5.90;;
26620;SDS011;14253;44.840;10.444;2023-02-28T03:47:44;11.95;;;6.63;;
26620;SDS011;14253;44.840;10.444;2023-02-28T03:50:17;13.15;;;7.22;;
26620;SDS011;14253;44.840;10.444;2023-02-28T03:53:09;9.60;;;6.28;;
26620;SDS011;14253;44.840;10.444;2023-02-28T03:55:48;11.15;;;6.72;;
26620;SDS011;14253;44.840;10.444;2023-02-28T04:01:12;10.60;;;6.70;;
26620;SDS011;14253;44.840;10.444;2023-02-28T04:03:44;12.63;;;6.70;;
26620;SDS011;14253;44.840;10.444;2023-02-28T04:06:15;13.18;;;6.50;;
26620;SDS011;14253;44.840;10.444;2023-02-28T04:08:44;10.75;;;6.55;;
26620;SDS011;14253;44.840;10.444;2023-02-28T04:11:23;9.27;;;6.10;;
26620;SDS011;14253;44.840;10.444;2023-02-28T04:14:00;11.23;;;6.53;;
26620;SDS011;14253;44.840;10.444;2023-02-28T04:16:31;11.68;;;7.07;;
26620;SDS011;14253;44.840;10.444;2023-02-28T04:18:58;11.10;;;6.85;;
26620;SDS011;14253;44.840;10.444;2023-02-28T04:21:28;10.95;;;6.68;;
26620;SDS011;14253;44.840;10.444;2023-02-28T04:23:58;11.75;;;7.35;;
26620;SDS011;14253;44.840;10.444;2023-02-28T04:26:29;11.50;;;6.72;;
26620;SDS011;14253;44.840;10.444;2023-02-28T04:28:59;10.32;;;7.07;;
26620;SDS011;14253;44.840;10.444;2023-02-28T04:31:26;8.88;;;5.95;;
26620;SDS011;14253;44.840;10.444;2023-02-28T04:33:52;14.05;;;7.85;;
26620;SDS011;14253;44.840;10.444;2023-02-28T04:36:18;11.57;;;7.10;;
26620;SDS011;14253;44.840;10.444;2023-02-28T04:38:44;10.95;;;6.68;;
26620;SDS011;14253;44.840;10.444;2023-02-28T04:41:11;12.48;;;7.47;;
26620;SDS011;14253;44.840;10.444;2023-02-28T04:43:37;13.32;;;7.47;;
26620;SDS011;14253;44.840;10.444;2023-02-28T04:46:04;12.13;;;7.35;;
26620;SDS011;14253;44.840;10.444;2023-02-28T04:48:32;13.60;;;7.82;;
26620;SDS011;14253;44.840;10.444;2023-02-28T04:51:03;11.73;;;7.00;;
26620;SDS011;14253;44.840;10.444;2023-02-28T04:53:34;12.40;;;7.32;;
26620;SDS011;14253;44.840;10.444;2023-02-28T04:56:01;14.15;;;7.65;;
26620;SDS011;14253;44.840;10.444;2023-02-28T04:58:27;11.88;;;7.63;;
26620;SDS011;14253;44.840;10.444;2023-02-28T05:00:53;10.48;;;6.90;;
26620;SDS011;14253;44.840;10.444;2023-02-28T05:03:26;11.05;;;7.38;;
26620;SDS011;14253;44.840;10.444;2023-02-28T05:05:52;11.07;;;7.05;;
26620;SDS011;14253;44.840;10.444;2023-02-28T05:08:18;13.63;;;7.63;;
26620;SDS011;14253;44.840;10.444;2023-02-28T05:10:43;13.10;;;6.63;;
26620;SDS011;14253;44.840;10.444;2023-02-28T05:13:12;10.13;;;6.80;;
26620;SDS011;14253;44.840;10.444;2023-02-28T05:15:38;12.30;;;7.15;;
26620;SDS011;14253;44.840;10.444;2023-02-28T05:18:04;10.52;;;7.05;;
26620;SDS011;14253;44.840;10.444;2023-02-28T05:20:31;13.73;;;7.50;;
26620;SDS011;14253;44.840;10.444;2023-02-28T05:22:57;12.60;;;7.93;;
26620;SDS011;14253;44.840;10.444;2023-02-28T05:25:24;12.02;;;7.22;;
26620;SDS011;14253;44.840;10.444;2023-02-28T05:27:50;11.38;;;7.30;;
26620;SDS011;14253;44.840;10.444;2023-02-28T05:30:16;14.85;;;7.88;;
26620;SDS011;14253;44.840;10.444;2023-02-28T05:32:42;10.35;;;7.00;;
26620;SDS011;14253;44.840;10.444;2023-02-28T05:35:10;11.50;;;7.40;;
26620;SDS011;14253;44.840;10.444;2023-02-28T05:37:37;10.57;;;7.40;;
26620;SDS011;14253;44.840;10.444;2023-02-28T05:40:04;11.32;;;7.00;;
26620;SDS011;14253;44.840;10.444;2023-02-28T05:42:32;15.80;;;7.47;;
26620;SDS011;14253;44.840;10.444;2023-02-28T05:44:58;14.00;;;8.15;;
26620;SDS011;14253;44.840;10.444;2023-02-28T05:47:24;16.92;;;8.35;;
26620;SDS011;14253;44.840;10.444;2023-02-28T05:49:50;16.17;;;8.25;;
26620;SDS011;14253;44.840;10.444;2023-02-28T05:52:16;13.02;;;8.05;;
26620;SDS011;14253;44.840;10.444;2023-02-28T05:54:42;14.43;;;7.57;;
26620;SDS011;14253;44.840;10.444;2023-02-28T05:57:08;12.15;;;8.00;;
26620;SDS011;14253;44.840;10.444;2023-02-28T05:59:34;14.48;;;7.95;;
26620;SDS011;14253;44.840;10.444;2023-02-28T06:02:05;12.35;;;7.57;;
26620;SDS011;14253;44.840;10.444;2023-02-28T06:04:41;12.20;;;7.60;;
26620;SDS011;14253;44.840;10.444;2023-02-28T06:07:07;10.95;;;6.85;;
26620;SDS011;14253;44.840;10.444;2023-02-28T06:09:33;12.25;;;7.85;;
26620;SDS011;14253;44.840;10.444;2023-02-28T06:12:00;14.57;;;8.07;;
26620;SDS011;14253;44.840;10.444;2023-02-28T06:14:29;14.82;;;7.95;;
26620;SDS011;14253;44.840;10.444;2023-02-28T06:16:56;12.38;;;7.72;;
26620;SDS011;14253;44.840;10.444;2023-02-28T06:19:22;15.60;;;8.35;;
26620;SDS011;14253;44.840;10.444;2023-02-28T06:21:51;10.43;;;7.40;;
26620;SDS011;14253;44.840;10.444;2023-02-28T06:24:21;15.13;;;8.43;;
26620;SDS011;14253;44.840;10.444;2023-02-28T06:26:49;12.32;;;7.55;;
26620;SDS011;14253;44.840;10.444;2023-02-28T06:29:15;10.88;;;7.40;;
26620;SDS011;14253;44.840;10.444;2023-02-28T06:31:44;13.45;;;7.13;;
26620;SDS011;14253;44.840;10.444;2023-02-28T06:34:13;11.88;;;6.93;;
26620;SDS011;14253;44.840;10.444;2023-02-28T06:36:40;13.18;;;7.07;;
26620;SDS011;14253;44.840;10.444;2023-02-28T06:39:07;12.10;;;7.80;;
26620;SDS011;14253;44.840;10.444;2023-02-28T06:41:34;15.88;;;8.48;;
26620;SDS011;14253;44.840;10.444;2023-02-28T06:44:05;15.55;;;9.02;;
26620;SDS011;14253;44.840;10.444;2023-02-28T06:46:40;16.40;;;7.80;;
26620;SDS011;14253;44.840;10.444;2023-02-28T06:49:07;13.40;;;8.00;;
26620;SDS011;14253;44.840;10.444;2023-02-28T06:51:34;11.13;;;8.02;;
26620;SDS011;14253;44.840;10.444;2023-02-28T06:54:02;13.93;;;8.20;;
26620;SDS011;14253;44.840;10.444;2023-02-28T06:56:28;17.63;;;9.27;;
26620;SDS011;14253;44.840;10.444;2023-02-28T06:58:54;17.40;;;8.70;;
26620;SDS011;14253;44.840;10.444;2023-02-28T07:01:21;13.65;;;9.05;;
26620;SDS011;14253;44.840;10.444;2023-02-28T07:03:49;15.20;;;9.00;;
26620;SDS011;14253;44.840;10.444;2023-02-28T07:06:18;14.30;;;8.45;;
26620;SDS011;14253;44.840;10.444;2023-02-28T07:08:44;13.43;;;8.23;;
26620;SDS011;14253;44.840;10.444;2023-02-28T07:11:10;12.85;;;8.93;;
26620;SDS011;14253;44.840;10.444;2023-02-28T07:13:36;13.07;;;8.10;;
26620;SDS011;14253;44.840;10.444;2023-02-28T07:16:03;17.30;;;9.10;;
26620;SDS011;14253;44.840;10.444;2023-02-28T07:18:30;18.67;;;9.20;;
26620;SDS011;14253;44.840;10.444;2023-02-28T07:20:57;17.02;;;9.52;;
26620;SDS011;14253;44.840;10.444;2023-02-28T07:23:23;18.10;;;8.73;;
26620;SDS011;14253;44.840;10.444;2023-02-28T07:25:50;17.33;;;9.27;;
26620;SDS011;14253;44.840;10.444;2023-02-28T07:28:16;15.18;;;9.35;;
26620;SDS011;14253;44.840;10.444;2023-02-28T07:30:42;16.02;;;9.60;;
26620;SDS011;14253;44.840;10.444;2023-02-28T07:33:08;16.10;;;8.82;;
26620;SDS011;14253;44.840;10.444;2023-02-28T07:35:34;14.00;;;9.32;;
26620;SDS011;14253;44.840;10.444;2023-02-28T07:38:00;14.63;;;9.02;;
26620;SDS011;14253;44.840;10.444;2023-02-28T07:40:26;16.55;;;9.35;;
26620;SDS011;14253;44.840;10.444;2023-02-28T07:42:52;15.57;;;9.02;;
26620;SDS011;14253;44.840;10.444;2023-02-28T07:45:18;16.88;;;9.10;;
26620;SDS011;14253;44.840;10.444;2023-02-28T07:47:45;14.88;;;9.30;;
26620;SDS011;14253;44.840;10.444;2023-02-28T07:50:12;18.85;;;10.02;;
26620;SDS011;14253;44.840;10.444;2023-02-28T07:52:41;13.52;;;9.15;;
26620;SDS011;14253;44.840;10.444;2023-02-28T07:55:07;17.35;;;10.32;;
26620;SDS011;14253;44.840;10.444;2023-02-28T07:57:34;14.52;;;10.02;;
26620;SDS011;14253;44.840;10.444;2023-02-28T08:00:01;16.25;;;10.18;;
26620;SDS011;14253;44.840;10.444;2023-02-28T08:02:36;15.32;;;9.65;;
26620;SDS011;14253;44.840;10.444;2023-02-28T08:05:02;14.88;;;9.23;;
26620;SDS011;14253;44.840;10.444;2023-02-28T08:07:29;16.38;;;9.38;;
26620;SDS011;14253;44.840;10.444;2023-02-28T08:09:55;15.63;;;9.35;;
26620;SDS011;14253;44.840;10.444;2023-02-28T08:12:21;15.35;;;9.18;;
26620;SDS011;14253;44.840;10.444;2023-02-28T08:14:47;13.85;;;9.40;;
26620;SDS011;14253;44.840;10.444;2023-02-28T08:17:12;21.38;;;8.38;;
26620;SDS011;14253;44.840;10.444;2023-02-28T08:19:38;14.27;;;9.10;;
26620;SDS011;14253;44.840;10.444;2023-02-28T08:22:04;17.83;;;9.60;;
26620;SDS011;14253;44.840;10.444;2023-02-28T08:24:30;15.13;;;8.63;;
26620;SDS011;14253;44.840;10.444;2023-02-28T08:26:56;16.75;;;9.80;;
26620;SDS011;14253;44.840;10.444;2023-02-28T08:29:22;17.20;;;9.55;;
26620;SDS011;14253;44.840;10.444;2023-02-28T08:31:48;14.98;;;8.85;;
26620;SDS011;14253;44.840;10.444;2023-02-28T08:34:15;14.93;;;8.57;;
26620;SDS011;14253;44.840;10.444;2023-02-28T08:36:42;16.08;;;9.85;;
26620;SDS011;14253;44.840;10.444;2023-02-28T08:39:10;13.25;;;8.27;;
26620;SDS011;14253;44.840;10.444;2023-02-28T08:41:36;13.63;;;8.25;;
26620;SDS011;14253;44.840;10.444;2023-02-28T08:44:02;12.27;;;8.10;;
26620;SDS011;14253;44.840;10.444;2023-02-28T08:46:28;12.10;;;7.97;;
26620;SDS011;14253;44.840;10.444;2023-02-28T08:48:54;11.90;;;7.20;;
26620;SDS011;14253;44.840;10.444;2023-02-28T08:51:24;15.65;;;8.43;;
26620;SDS011;14253;44.840;10.444;2023-02-28T08:53:54;12.40;;;7.60;;
26620;SDS011;14253;44.840;10.444;2023-02-28T08:56:22;12.55;;;7.50;;
26620;SDS011;14253;44.840;10.444;2023-02-28T08:58:49;11.65;;;7.95;;
26620;SDS011;14253;44.840;10.444;2023-02-28T09:01:17;11.65;;;7.88;;
26620;SDS011;14253;44.840;10.444;2023-02-28T09:03:53;17.40;;;10.00;;
26620;SDS011;14253;44.840;10.444;2023-02-28T09:06:20;15.10;;;8.05;;
26620;SDS011;14253;44.840;10.444;2023-02-28T09:08:48;13.18;;;8.20;;
26620;SDS011;14253;44.840;10.444;2023-02-28T09:11:14;11.43;;;7.97;;
26620;SDS011;14253;44.840;10.444;2023-02-28T09:13:41;12.75;;;7.95;;
26620;SDS011;14253;44.840;10.444;2023-02-28T09:16:09;10.27;;;7.68;;
26620;SDS011;14253;44.840;10.444;2023-02-28T09:18:37;12.32;;;7.32;;
26620;SDS011;14253;44.840;10.444;2023-02-28T09:21:04;12.43;;;8.02;;
26620;SDS011;14253;44.840;10.444;2023-02-28T09:23:31;13.02;;;7.30;;
26620;SDS011;14253;44.840;10.444;2023-02-28T09:25:57;10.60;;;6.90;;
26620;SDS011;14253;44.840;10.444;2023-02-28T09:28:23;11.77;;;7.95;;
26620;SDS011;14253;44.840;10.444;2023-02-28T09:30:50;14.80;;;7.40;;
26620;SDS011;14253;44.840;10.444;2023-02-28T09:33:19;14.07;;;7.55;;
26620;SDS011;14253;44.840;10.444;2023-02-28T09:35:47;13.27;;;8.20;;
26620;SDS011;14253;44.840;10.444;2023-02-28T09:38:13;9.88;;;6.63;;
26620;SDS011;14253;44.840;10.444;2023-02-28T09:40:41;10.65;;;6.50;;
26620;SDS011;14253;44.840;10.444;2023-02-28T09:43:16;14.43;;;7.68;;
26620;SDS011;14253;44.840;10.444;2023-02-28T09:45:47;12.80;;;7.75;;
26620;SDS011;14253;44.840;10.444;2023-02-28T09:48:27;10.38;;;7.20;;
26620;SDS011;14253;44.840;10.444;2023-02-28T09:53:29;12.40;;;8.25;;
26620;SDS011;14253;44.840;10.444;2023-02-28T09:56:20;14.05;;;7.22;;
26620;SDS011;14253;44.840;10.444;2023-02-28T10:04:52;12.45;;;7.68;;
26620;SDS011;14253;44.840;10.444;2023-02-28T10:12:54;13.00;;;8.35;;
26620;SDS011;14253;44.840;10.444;2023-02-28T10:15:23;12.23;;;7.55;;
26620;SDS011;14253;44.840;10.444;2023-02-28T10:17:53;11.05;;;7.47;;
26620;SDS011;14253;44.840;10.444;2023-02-28T10:20:22;17.15;;;7.22;;
26620;SDS011;14253;44.840;10.444;2023-02-28T10:23:13;13.25;;;7.47;;
26620;SDS011;14253;44.840;10.444;2023-02-28T10:26:00;11.35;;;7.15;;
26620;SDS011;14253;44.840;10.444;2023-02-28T10:28:35;12.60;;;7.07;;
26620;SDS011;14253;44.840;10.444;2023-02-28T10:31:01;9.95;;;6.68;;
26620;SDS011;14253;44.840;10.444;2023-02-28T10:33:29;9.80;;;6.75;;
26620;SDS011;14253;44.840;10.444;2023-02-28T10:35:57;12.88;;;7.60;;
26620;SDS011;14253;44.840;10.444;2023-02-28T10:38:25;14.38;;;8.77;;
26620;SDS011;14253;44.840;10.444;2023-02-28T10:43:34;13.52;;;7.25;;
26620;SDS011;14253;44.840;10.444;2023-02-28T10:48:36;12.10;;;7.60;;
26620;SDS011;14253;44.840;10.444;2023-02-28T10:51:05;14.40;;;7.75;;
26620;SDS011;14253;44.840;10.444;2023-02-28T10:53:35;15.23;;;8.02;;
26620;SDS011;14253;44.840;10.444;2023-02-28T11:01:23;13.85;;;7.32;;
26620;SDS011;14253;44.840;10.444;2023-02-28T11:03:55;13.23;;;7.45;;
26620;SDS011;14253;44.840;10.444;2023-02-28T11:06:23;16.90;;;7.70;;
26620;SDS011;14253;44.840;10.444;2023-02-28T11:09:04;18.27;;;8.13;;
26620;SDS011;14253;44.840;10.444;2023-02-28T11:11:44;16.60;;;9.05;;
26620;SDS011;14253;44.840;10.444;2023-02-28T11:14:21;11.23;;;8.15;;
26620;SDS011;14253;44.840;10.444;2023-02-28T11:16:52;13.18;;;7.97;;
26620;SDS011;14253;44.840;10.444;2023-02-28T11:19:27;14.57;;;8.27;;
26620;SDS011;14253;44.840;10.444;2023-02-28T11:21:59;12.43;;;7.70;;
26620;SDS011;14253;44.840;10.444;2023-02-28T11:24:40;13.27;;;8.23;;
26620;SDS011;14253;44.840;10.444;2023-02-28T11:27:26;13.25;;;7.93;;
26620;SDS011;14253;44.840;10.444;2023-02-28T11:29:55;15.32;;;8.27;;
26620;SDS011;14253;44.840;10.444;2023-02-28T11:32:22;11.23;;;8.07;;
26620;SDS011;14253;44.840;10.444;2023-02-28T11:35:33;14.85;;;8.75;;
26620;SDS011;14253;44.840;10.444;2023-02-28T11:37:42;13.90;;;8.23;;
26620;SDS011;14253;44.840;10.444;2023-02-28T11:40:14;13.60;;;8.45;;
26620;SDS011;14253;44.840;10.444;2023-02-28T11:45:50;12.90;;;7.97;;
26620;SDS011;14253;44.840;10.444;2023-02-28T11:48:32;15.15;;;8.70;;
26620;SDS011;14253;44.840;10.444;2023-02-28T11:56:37;15.25;;;8.45;;
26620;SDS011;14253;44.840;10.444;2023-02-28T11:59:42;12.35;;;8.15;;
26620;SDS011;14253;44.840;10.444;2023-02-28T12:02:08;14.20;;;9.07;;
26620;SDS011;14253;44.840;10.444;2023-02-28T12:18:31;14.35;;;10.30;;
26620;SDS011;14253;44.840;10.444;2023-02-28T12:28:59;15.00;;;9.65;;
26620;SDS011;14253;44.840;10.444;2023-02-28T12:31:34;15.15;;;9.95;;
26620;SDS011;14253;44.840;10.444;2023-02-28T12:34:04;15.13;;;9.70;;
26620;SDS011;14253;44.840;10.444;2023-02-28T12:36:35;15.48;;;10.13;;
26620;SDS011;14253;44.840;10.444;2023-02-28T12:39:04;17.58;;;11.40;;
26620;SDS011;14253;44.840;10.444;2023-02-28T12:41:41;19.63;;;10.35;;
26620;SDS011;14253;44.840;10.444;2023-02-28T12:44:32;17.00;;;10.00;;
26620;SDS011;14253;44.840;10.444;2023-02-28T12:47:12;14.23;;;10.13;;
26620;SDS011;14253;44.840;10.444;2023-02-28T12:49:43;14.48;;;9.18;;
26620;SDS011;14253;44.840;10.444;2023-02-28T12:52:18;14.35;;;10.00;;
26620;SDS011;14253;44.840;10.444;2023-02-28T13:00:19;13.73;;;9.23;;
26620;SDS011;14253;44.840;10.444;2023-02-28T13:02:54;14.13;;;10.23;;
26620;SDS011;14253;44.840;10.444;2023-02-28T13:08:08;17.92;;;10.50;;
26620;SDS011;14253;44.840;10.444;2023-02-28T13:10:47;17.05;;;10.65;;
26620;SDS011;14253;44.840;10.444;2023-02-28T13:13:25;16.00;;;9.98;;
26620;SDS011;14253;44.840;10.444;2023-02-28T13:15:58;16.10;;;10.35;;
26620;SDS011;14253;44.840;10.444;2023-02-28T13:18:31;15.30;;;10.38;;
26620;SDS011;14253;44.840;10.444;2023-02-28T13:21:01;14.10;;;9.75;;
26620;SDS011;14253;44.840;10.444;2023-02-28T13:26:21;15.15;;;10.88;;
26620;SDS011;14253;44.840;10.444;2023-02-28T13:31:14;16.92;;;11.02;;
26620;SDS011;14253;44.840;10.444;2023-02-28T13:36:27;14.75;;;10.35;;
26620;SDS011;14253;44.840;10.444;2023-02-28T13:38:59;15.23;;;10.40;;
26620;SDS011;14253;44.840;10.444;2023-02-28T13:41:48;18.35;;;11.57;;
26620;SDS011;14253;44.840;10.444;2023-02-28T13:44:18;16.05;;;10.93;;
26620;SDS011;14253;44.840;10.444;2023-02-28T13:59:53;16.17;;;10.60;;
26620;SDS011;14253;44.840;10.444;2023-02-28T14:05:29;14.63;;;9.73;;
26620;SDS011;14253;44.840;10.444;2023-02-28T14:07:58;20.40;;;11.68;;
26620;SDS011;14253;44.840;10.444;2023-02-28T14:10:30;16.08;;;11.25;;
26620;SDS011;14253;44.840;10.444;2023-02-28T14:15:59;17.98;;;10.82;;
26620;SDS011;14253;44.840;10.444;2023-02-28T14:21:31;19.17;;;12.07;;
26620;SDS011;14253;44.840;10.444;2023-02-28T14:33:00;22.02;;;12.32;;
26620;SDS011;14253;44.840;10.444;2023-02-28T14:38:57;20.52;;;13.02;;
26620;SDS011;14253;44.840;10.444;2023-02-28T14:41:46;19.85;;;12.75;;
26620;SDS011;14253;44.840;10.444;2023-02-28T14:44:15;22.27;;;11.98;;
26620;SDS011;14253;44.840;10.444;2023-02-28T14:46:56;16.65;;;11.73;;
26620;SDS011;14253;44.840;10.444;2023-02-28T14:52:03;16.45;;;11.35;;
26620;SDS011;14253;44.840;10.444;2023-02-28T14:54:40;19.70;;;11.45;;
26620;SDS011;14253;44.840;10.444;2023-02-28T14:57:06;19.40;;;12.15;;
26620;SDS011;14253;44.840;10.444;2023-02-28T14:59:45;17.27;;;12.18;;
26620;SDS011;14253;44.840;10.444;2023-02-28T15:02:19;17.67;;;11.82;;
26620;SDS011;14253;44.840;10.444;2023-02-28T15:04:55;18.35;;;11.52;;
26620;SDS011;14253;44.840;10.444;2023-02-28T15:07:26;22.50;;;12.80;;
26620;SDS011;14253;44.840;10.444;2023-02-28T15:12:52;15.55;;;11.50;;
26620;SDS011;14253;44.840;10.444;2023-02-28T15:15:18;15.07;;;10.80;;
26620;SDS011;14253;44.840;10.444;2023-02-28T15:17:54;16.55;;;11.43;;
26620;SDS011;14253;44.840;10.444;2023-02-28T15:20:23;19.77;;;11.73;;
26620;SDS011;14253;44.840;10.444;2023-02-28T15:22:50;18.88;;;12.77;;
26620;SDS011;14253;44.840;10.444;2023-02-28T15:25:21;20.92;;;13.65;;
26620;SDS011;14253;44.840;10.444;2023-02-28T15:27:52;21.63;;;13.52;;
26620;SDS011;14253;44.840;10.444;2023-02-28T15:35:45;19.48;;;14.10;;
26620;SDS011;14253;44.840;10.444;2023-02-28T15:40:49;17.80;;;12.95;;
26620;SDS011;14253;44.840;10.444;2023-02-28T15:43:24;21.08;;;14.15;;
26620;SDS011;14253;44.840;10.444;2023-02-28T15:46:07;22.10;;;13.70;;
26620;SDS011;14253;44.840;10.444;2023-02-28T15:48:46;26.45;;;14.00;;
26620;SDS011;14253;44.840;10.444;2023-02-28T15:51:19;23.90;;;13.35;;
26620;SDS011;14253;44.840;10.444;2023-02-28T15:56:26;19.92;;;13.98;;
26620;SDS011;14253;44.840;10.444;2023-02-28T15:59:02;22.90;;;14.13;;
26620;SDS011;14253;44.840;10.444;2023-02-28T16:01:38;24.75;;;14.30;;
26620;SDS011;14253;44.840;10.444;2023-02-28T16:04:05;24.65;;;13.38;;
26620;SDS011;14253;44.840;10.444;2023-02-28T16:09:23;21.50;;;13.93;;
26620;SDS011;14253;44.840;10.444;2023-02-28T16:11:50;20.33;;;14.25;;
26620;SDS011;14253;44.840;10.444;2023-02-28T16:14:21;22.30;;;13.75;;
26620;SDS011;14253;44.840;10.444;2023-02-28T16:17:07;20.52;;;13.93;;
26620;SDS011;14253;44.840;10.444;2023-02-28T16:19:44;20.77;;;13.98;;
26620;SDS011;14253;44.840;10.444;2023-02-28T16:22:10;20.98;;;13.45;;
26620;SDS011;14253;44.840;10.444;2023-02-28T16:24:36;19.85;;;14.07;;
26620;SDS011;14253;44.840;10.444;2023-02-28T16:27:03;20.67;;;14.48;;
26620;SDS011;14253;44.840;10.444;2023-02-28T16:29:31;23.45;;;13.57;;
26620;SDS011;14253;44.840;10.444;2023-02-28T16:32:02;21.02;;;13.30;;
26620;SDS011;14253;44.840;10.444;2023-02-28T16:34:30;21.90;;;13.93;;
26620;SDS011;14253;44.840;10.444;2023-02-28T16:36:56;24.92;;;14.50;;
26620;SDS011;14253;44.840;10.444;2023-02-28T16:39:23;23.02;;;14.50;;
26620;SDS011;14253;44.840;10.444;2023-02-28T16:41:50;21.73;;;13.65;;
26620;SDS011;14253;44.840;10.444;2023-02-28T16:44:29;26.83;;;15.05;;
26620;SDS011;14253;44.840;10.444;2023-02-28T16:47:00;24.77;;;14.90;;
26620;SDS011;14253;44.840;10.444;2023-02-28T16:49:28;30.98;;;14.90;;
26620;SDS011;14253;44.840;10.444;2023-02-28T16:51:55;26.10;;;15.55;;
26620;SDS011;14253;44.840;10.444;2023-02-28T16:54:22;24.60;;;15.18;;
26620;SDS011;14253;44.840;10.444;2023-02-28T16:56:48;29.85;;;16.15;;
26620;SDS011;14253;44.840;10.444;2023-02-28T16:59:17;26.77;;;16.92;;
26620;SDS011;14253;44.840;10.444;2023-02-28T17:01:46;25.75;;;16.40;;
26620;SDS011;14253;44.840;10.444;2023-02-28T17:04:12;31.80;;;16.58;;
26620;SDS011;14253;44.840;10.444;2023-02-28T17:06:39;27.67;;;16.33;;
26620;SDS011;14253;44.840;10.444;2023-02-28T17:09:05;34.78;;;17.73;;
26620;SDS011;14253;44.840;10.444;2023-02-28T17:11:39;23.63;;;15.07;;